sensor_id;sensor_type;location;lat;lon;timestamp;temperature;humidity
10885;DHT22;5495;53.252;10.390;2023-02-11T00:01:26;5.80;99.90
10885;DHT22;5495;53.252;10.390;2023-02-11T00:04:01;5.80;99.90
10885;DHT22;5495;53.252;10.390;2023-02-11T00:06:31;6.60;99.90
10885;DHT22;5495;53.252;10.390;2023-02-11T00:09:00;5.50;99.90
10885;DHT22;5495;53.252;10.390;2023-02-11T00:11:39;6.10;99.90
10885;DHT22;5495;53.252;10.390;2023-02-11T00:14:29;6.60;99.90
10885;DHT22;5495;53.252;10.390;2023-02-11T00:17:02;7.20;99.90
10885;DHT22;5495;53.252;10.390;2023-02-11T00:19:29;7.30;99.90
10885;DHT22;5495;53.252;10.390;2023-02-11T00:21:57;5.90;99.90
10885;DHT22;5495;53.252;10.390;2023-02-11T00:24:24;6.00;99.90
10885;DHT22;5495;53.252;10.390;2023-02-11T00:26:52;5.90;99.90
10885;DHT22;5495;53.252;10.390;2023-02-11T00:29:20;5.90;99.90
10885;DHT22;5495;53.252;10.390;2023-02-11T00:31:52;5.90;99.90
10885;DHT22;5495;53.252;10.390;2023-02-11T00:34:19;5.80;99.90
10885;DHT22;5495;53.252;10.390;2023-02-11T00:36:47;6.00;99.90
10885;DHT22;5495;53.252;10.390;2023-02-11T00:39:15;5.80;99.90
10885;DHT22;5495;53.252;10.390;2023-02-11T00:41:42;5.80;99.90
10885;DHT22;5495;53.252;10.390;2023-02-11T00:44:09;5.80;99.90
10885;DHT22;5495;53.252;10.390;2023-02-11T00:46:37;4.70;99.90
10885;DHT22;5495;53.252;10.390;2023-02-11T00:49:06;2.90;99.90
10885;DHT22;5495;53.252;10.390;2023-02-11T00:51:33;6.00;99.90
10885;DHT22;5495;53.252;10.390;2023-02-11T00:54:01;6.10;99.90
10885;DHT22;5495;53.252;10.390;2023-02-11T00:56:29;6.00;99.90
10885;DHT22;5495;53.252;10.390;2023-02-11T00:58:56;3.50;99.90
10885;DHT22;5495;53.252;10.390;2023-02-11T01:01:26;6.50;99.90
10885;DHT22;5495;53.252;10.390;2023-02-11T01:04:01;5.90;99.90
10885;DHT22;5495;53.252;10.390;2023-02-11T01:06:30;5.90;99.90
10885;DHT22;5495;53.252;10.390;2023-02-11T01:08:57;6.30;99.90
10885;DHT22;5495;53.252;10.390;2023-02-11T01:11:27;5.90;99.90
10885;DHT22;5495;53.252;10.390;2023-02-11T01:13:59;5.90;99.90
10885;DHT22;5495;53.252;10.390;2023-02-11T01:16:27;5.90;99.90
10885;DHT22;5495;53.252;10.390;2023-02-11T01:18:54;6.60;99.90
10885;DHT22;5495;53.252;10.390;2023-02-11T01:21:23;3.90;99.90
10885;DHT22;5495;53.252;10.390;2023-02-11T01:23:52;6.20;99.90
10885;DHT22;5495;53.252;10.390;2023-02-11T01:26:29;6.00;99.90
10885;DHT22;5495;53.252;10.390;2023-02-11T01:28:57;5.90;99.90
10885;DHT22;5495;53.252;10.390;2023-02-11T01:31:29;5.90;99.90
10885;DHT22;5495;53.252;10.390;2023-02-11T01:34:01;6.50;99.90
10885;DHT22;5495;53.252;10.390;2023-02-11T01:36:28;6.20;99.90
10885;DHT22;5495;53.252;10.390;2023-02-11T01:38:57;5.90;99.90
10885;DHT22;5495;53.252;10.390;2023-02-11T01:41:30;6.30;99.90
10885;DHT22;5495;53.252;10.390;2023-02-11T01:46:44;6.70;99.90
10885;DHT22;5495;53.252;10.390;2023-02-11T01:49:15;5.90;99.90
10885;DHT22;5495;53.252;10.390;2023-02-11T01:51:47;6.20;99.90
10885;DHT22;5495;53.252;10.390;2023-02-11T01:54:20;6.20;99.90
10885;DHT22;5495;53.252;10.390;2023-02-11T01:57:06;5.70;99.90
10885;DHT22;5495;53.252;10.390;2023-02-11T01:59:58;5.90;99.90
10885;DHT22;5495;53.252;10.390;2023-02-11T02:02:36;6.20;99.90
10885;DHT22;5495;53.252;10.390;2023-02-11T02:05:09;5.90;99.90
10885;DHT22;5495;53.252;10.390;2023-02-11T02:07:48;6.50;99.90
10885;DHT22;5495;53.252;10.390;2023-02-11T02:10:23;5.80;99.90
10885;DHT22;5495;53.252;10.390;2023-02-11T02:12:52;6.50;99.90
10885;DHT22;5495;53.252;10.390;2023-02-11T02:15:29;6.20;99.90
10885;DHT22;5495;53.252;10.390;2023-02-11T02:18:08;6.20;99.90
10885;DHT22;5495;53.252;10.390;2023-02-11T02:21:12;4.00;99.90
10885;DHT22;5495;53.252;10.390;2023-02-11T02:24:23;6.00;99.90
10885;DHT22;5495;53.252;10.390;2023-02-11T02:27:17;6.10;99.90
10885;DHT22;5495;53.252;10.390;2023-02-11T02:33:19;6.50;99.90
10885;DHT22;5495;53.252;10.390;2023-02-11T02:35:59;6.00;99.90
10885;DHT22;5495;53.252;10.390;2023-02-11T02:38:32;6.00;99.90
10885;DHT22;5495;53.252;10.390;2023-02-11T02:41:13;6.00;99.90
10885;DHT22;5495;53.252;10.390;2023-02-11T02:43:44;6.50;99.90
10885;DHT22;5495;53.252;10.390;2023-02-11T02:46:14;5.90;99.90
10885;DHT22;5495;53.252;10.390;2023-02-11T02:48:49;6.60;99.90
10885;DHT22;5495;53.252;10.390;2023-02-11T02:51:34;6.40;99.90
10885;DHT22;5495;53.252;10.390;2023-02-11T02:54:42;6.70;99.90
10885;DHT22;5495;53.252;10.390;2023-02-11T02:57:21;6.00;99.90
10885;DHT22;5495;53.252;10.390;2023-02-11T03:00:08;6.00;99.90
10885;DHT22;5495;53.252;10.390;2023-02-11T03:02:57;6.00;99.90
10885;DHT22;5495;53.252;10.390;2023-02-11T03:05:38;6.00;99.90
10885;DHT22;5495;53.252;10.390;2023-02-11T03:08:16;6.00;99.90
10885;DHT22;5495;53.252;10.390;2023-02-11T03:10:49;6.00;99.90
10885;DHT22;5495;53.252;10.390;2023-02-11T03:13:28;6.00;99.90
10885;DHT22;5495;53.252;10.390;2023-02-11T03:16:00;6.00;99.90
10885;DHT22;5495;53.252;10.390;2023-02-11T03:18:34;6.00;99.90
10885;DHT22;5495;53.252;10.390;2023-02-11T03:21:09;6.10;99.90
10885;DHT22;5495;53.252;10.390;2023-02-11T03:23:43;6.10;99.90
10885;DHT22;5495;53.252;10.390;2023-02-11T03:26:20;6.10;99.90
10885;DHT22;5495;53.252;10.390;2023-02-11T03:28:54;5.90;99.90
10885;DHT22;5495;53.252;10.390;2023-02-11T03:31:29;6.00;99.90
10885;DHT22;5495;53.252;10.390;2023-02-11T03:34:05;5.90;99.90
10885;DHT22;5495;53.252;10.390;2023-02-11T03:36:40;6.00;99.90
10885;DHT22;5495;53.252;10.390;2023-02-11T03:39:12;6.10;99.90
10885;DHT22;5495;53.252;10.390;2023-02-11T03:41:41;6.00;99.90
10885;DHT22;5495;53.252;10.390;2023-02-11T03:44:13;6.30;99.90
10885;DHT22;5495;53.252;10.390;2023-02-11T03:46:45;6.00;99.90
10885;DHT22;5495;53.252;10.390;2023-02-11T03:49:16;6.10;99.90
10885;DHT22;5495;53.252;10.390;2023-02-11T03:51:48;6.00;99.90
10885;DHT22;5495;53.252;10.390;2023-02-11T03:54:23;6.10;99.90
10885;DHT22;5495;53.252;10.390;2023-02-11T03:56:58;6.10;99.90
10885;DHT22;5495;53.252;10.390;2023-02-11T03:59:28;6.20;99.90
10885;DHT22;5495;53.252;10.390;2023-02-11T04:01:59;6.20;99.90
10885;DHT22;5495;53.252;10.390;2023-02-11T04:04:27;6.50;99.90
10885;DHT22;5495;53.252;10.390;2023-02-11T04:06:56;6.40;99.90
10885;DHT22;5495;53.252;10.390;2023-02-11T04:09:26;6.10;99.90
10885;DHT22;5495;53.252;10.390;2023-02-11T04:11:53;6.20;99.90
10885;DHT22;5495;53.252;10.390;2023-02-11T04:14:21;6.20;99.90
10885;DHT22;5495;53.252;10.390;2023-02-11T04:16:48;6.20;99.90
10885;DHT22;5495;53.252;10.390;2023-02-11T04:19:16;6.10;99.90
10885;DHT22;5495;53.252;10.390;2023-02-11T04:21:43;6.50;99.90
10885;DHT22;5495;53.252;10.390;2023-02-11T04:24:12;6.30;99.90
10885;DHT22;5495;53.252;10.390;2023-02-11T04:26:42;6.60;99.90
10885;DHT22;5495;53.252;10.390;2023-02-11T04:29:17;6.60;99.90
10885;DHT22;5495;53.252;10.390;2023-02-11T04:31:48;6.60;99.90
10885;DHT22;5495;53.252;10.390;2023-02-11T04:34:15;6.40;99.90
10885;DHT22;5495;53.252;10.390;2023-02-11T04:36:44;6.80;99.90
10885;DHT22;5495;53.252;10.390;2023-02-11T04:39:13;6.90;99.90
10885;DHT22;5495;53.252;10.390;2023-02-11T04:41:42;6.30;99.90
10885;DHT22;5495;53.252;10.390;2023-02-11T04:44:11;6.40;99.90
10885;DHT22;5495;53.252;10.390;2023-02-11T04:46:39;6.70;99.90
10885;DHT22;5495;53.252;10.390;2023-02-11T04:49:06;6.50;99.90
10885;DHT22;5495;53.252;10.390;2023-02-11T04:51:37;6.60;99.90
10885;DHT22;5495;53.252;10.390;2023-02-11T04:54:04;6.40;99.90
10885;DHT22;5495;53.252;10.390;2023-02-11T04:56:36;6.90;99.90
10885;DHT22;5495;53.252;10.390;2023-02-11T04:59:04;6.50;99.90
10885;DHT22;5495;53.252;10.390;2023-02-11T05:01:34;6.40;99.90
10885;DHT22;5495;53.252;10.390;2023-02-11T05:04:02;5.90;99.90
10885;DHT22;5495;53.252;10.390;2023-02-11T05:06:30;6.50;99.90
10885;DHT22;5495;53.252;10.390;2023-02-11T05:08:57;6.50;99.90
10885;DHT22;5495;53.252;10.390;2023-02-11T05:11:25;6.50;99.90
10885;DHT22;5495;53.252;10.390;2023-02-11T05:13:54;6.40;99.90
10885;DHT22;5495;53.252;10.390;2023-02-11T05:16:21;6.50;99.90
10885;DHT22;5495;53.252;10.390;2023-02-11T05:18:49;6.50;99.90
10885;DHT22;5495;53.252;10.390;2023-02-11T05:21:18;6.50;99.90
10885;DHT22;5495;53.252;10.390;2023-02-11T05:23:45;6.50;99.90
10885;DHT22;5495;53.252;10.390;2023-02-11T05:26:15;6.50;99.90
10885;DHT22;5495;53.252;10.390;2023-02-11T05:28:43;6.50;99.90
10885;DHT22;5495;53.252;10.390;2023-02-11T05:31:14;6.50;99.90
10885;DHT22;5495;53.252;10.390;2023-02-11T05:33:42;6.50;99.90
10885;DHT22;5495;53.252;10.390;2023-02-11T05:36:10;6.60;99.90
10885;DHT22;5495;53.252;10.390;2023-02-11T05:38:39;6.60;99.90
10885;DHT22;5495;53.252;10.390;2023-02-11T05:41:09;7.40;99.90
10885;DHT22;5495;53.252;10.390;2023-02-11T05:43:39;6.60;99.90
10885;DHT22;5495;53.252;10.390;2023-02-11T05:46:10;6.70;99.90
10885;DHT22;5495;53.252;10.390;2023-02-11T05:48:39;6.90;99.90
10885;DHT22;5495;53.252;10.390;2023-02-11T05:51:06;6.60;99.90
10885;DHT22;5495;53.252;10.390;2023-02-11T05:53:34;6.60;99.90
10885;DHT22;5495;53.252;10.390;2023-02-11T05:56:03;6.70;99.90
10885;DHT22;5495;53.252;10.390;2023-02-11T05:58:32;6.60;99.90
10885;DHT22;5495;53.252;10.390;2023-02-11T06:01:00;6.70;99.90
10885;DHT22;5495;53.252;10.390;2023-02-11T06:03:27;7.10;99.90
10885;DHT22;5495;53.252;10.390;2023-02-11T06:05:57;7.20;99.90
10885;DHT22;5495;53.252;10.390;2023-02-11T06:08:24;6.00;99.90
10885;DHT22;5495;53.252;10.390;2023-02-11T06:10:51;3.80;99.90
10885;DHT22;5495;53.252;10.390;2023-02-11T06:13:21;7.50;99.90
10885;DHT22;5495;53.252;10.390;2023-02-11T06:15:55;6.70;99.90
10885;DHT22;5495;53.252;10.390;2023-02-11T06:18:23;7.60;99.90
10885;DHT22;5495;53.252;10.390;2023-02-11T06:20:53;6.80;99.90
10885;DHT22;5495;53.252;10.390;2023-02-11T06:23:22;7.20;99.90
10885;DHT22;5495;53.252;10.390;2023-02-11T06:25:50;6.70;99.90
10885;DHT22;5495;53.252;10.390;2023-02-11T06:28:18;7.20;99.90
10885;DHT22;5495;53.252;10.390;2023-02-11T06:30:51;6.80;99.90
10885;DHT22;5495;53.252;10.390;2023-02-11T06:33:20;6.80;99.90
10885;DHT22;5495;53.252;10.390;2023-02-11T06:35:48;7.00;99.90
10885;DHT22;5495;53.252;10.390;2023-02-11T06:38:23;4.90;99.90
10885;DHT22;5495;53.252;10.390;2023-02-11T06:40:57;6.80;99.90
10885;DHT22;5495;53.252;10.390;2023-02-11T06:43:25;6.90;99.90
10885;DHT22;5495;53.252;10.390;2023-02-11T06:45:52;9.40;99.90
10885;DHT22;5495;53.252;10.390;2023-02-11T06:48:22;6.90;99.90
10885;DHT22;5495;53.252;10.390;2023-02-11T06:50:49;6.90;99.90
10885;DHT22;5495;53.252;10.390;2023-02-11T06:53:17;7.10;99.90
10885;DHT22;5495;53.252;10.390;2023-02-11T06:55:49;7.50;99.90
10885;DHT22;5495;53.252;10.390;2023-02-11T06:58:18;6.80;99.90
10885;DHT22;5495;53.252;10.390;2023-02-11T07:00:45;6.80;99.90
10885;DHT22;5495;53.252;10.390;2023-02-11T07:03:15;6.90;99.90
10885;DHT22;5495;53.252;10.390;2023-02-11T07:05:45;6.90;99.90
10885;DHT22;5495;53.252;10.390;2023-02-11T07:08:12;6.90;99.90
10885;DHT22;5495;53.252;10.390;2023-02-11T07:10:44;6.90;99.90
10885;DHT22;5495;53.252;10.390;2023-02-11T07:13:12;7.00;99.90
10885;DHT22;5495;53.252;10.390;2023-02-11T07:15:41;7.00;99.90
10885;DHT22;5495;53.252;10.390;2023-02-11T07:18:27;6.90;99.90
10885;DHT22;5495;53.252;10.390;2023-02-11T07:21:00;6.90;99.90
10885;DHT22;5495;53.252;10.390;2023-02-11T07:23:35;5.10;99.90
10885;DHT22;5495;53.252;10.390;2023-02-11T07:26:03;6.90;99.90
10885;DHT22;5495;53.252;10.390;2023-02-11T07:28:32;7.00;99.90
10885;DHT22;5495;53.252;10.390;2023-02-11T07:31:07;7.10;99.90
10885;DHT22;5495;53.252;10.390;2023-02-11T07:33:36;7.50;99.90
10885;DHT22;5495;53.252;10.390;2023-02-11T07:36:07;7.00;99.90
10885;DHT22;5495;53.252;10.390;2023-02-11T07:38:36;7.00;99.90
10885;DHT22;5495;53.252;10.390;2023-02-11T07:41:05;4.90;99.90
10885;DHT22;5495;53.252;10.390;2023-02-11T07:43:34;7.10;99.90
10885;DHT22;5495;53.252;10.390;2023-02-11T07:46:03;7.10;99.90
10885;DHT22;5495;53.252;10.390;2023-02-11T07:48:41;7.10;99.90
10885;DHT22;5495;53.252;10.390;2023-02-11T07:51:10;7.20;99.90
10885;DHT22;5495;53.252;10.390;2023-02-11T07:53:40;7.10;99.90
10885;DHT22;5495;53.252;10.390;2023-02-11T07:56:09;7.20;99.90
10885;DHT22;5495;53.252;10.390;2023-02-11T07:58:37;7.40;99.90
10885;DHT22;5495;53.252;10.390;2023-02-11T08:01:09;7.20;99.90
10885;DHT22;5495;53.252;10.390;2023-02-11T08:03:39;7.10;99.90
10885;DHT22;5495;53.252;10.390;2023-02-11T08:06:12;7.10;99.90
10885;DHT22;5495;53.252;10.390;2023-02-11T08:08:40;7.10;99.90
10885;DHT22;5495;53.252;10.390;2023-02-11T08:11:11;7.20;99.90
10885;DHT22;5495;53.252;10.390;2023-02-11T08:13:39;6.80;99.90
10885;DHT22;5495;53.252;10.390;2023-02-11T08:16:07;7.20;99.90
10885;DHT22;5495;53.252;10.390;2023-02-11T08:18:35;7.60;99.90
10885;DHT22;5495;53.252;10.390;2023-02-11T08:21:08;7.40;99.90
10885;DHT22;5495;53.252;10.390;2023-02-11T08:23:38;7.20;99.90
10885;DHT22;5495;53.252;10.390;2023-02-11T08:26:08;7.10;99.90
10885;DHT22;5495;53.252;10.390;2023-02-11T08:28:37;6.70;99.90
10885;DHT22;5495;53.252;10.390;2023-02-11T08:31:09;7.10;99.90
10885;DHT22;5495;53.252;10.390;2023-02-11T08:33:46;7.10;99.90
10885;DHT22;5495;53.252;10.390;2023-02-11T08:36:19;7.10;99.90
10885;DHT22;5495;53.252;10.390;2023-02-11T08:38:49;7.30;99.90
10885;DHT22;5495;53.252;10.390;2023-02-11T08:41:16;6.90;99.90
10885;DHT22;5495;53.252;10.390;2023-02-11T08:43:49;7.60;99.90
10885;DHT22;5495;53.252;10.390;2023-02-11T08:46:19;10.80;99.90
10885;DHT22;5495;53.252;10.390;2023-02-11T08:48:47;7.10;99.90
10885;DHT22;5495;53.252;10.390;2023-02-11T08:51:21;7.00;99.90
10885;DHT22;5495;53.252;10.390;2023-02-11T08:54:02;7.30;99.90
10885;DHT22;5495;53.252;10.390;2023-02-11T08:56:32;7.20;99.90
10885;DHT22;5495;53.252;10.390;2023-02-11T08:59:00;7.30;99.90
10885;DHT22;5495;53.252;10.390;2023-02-11T09:01:35;8.00;99.90
10885;DHT22;5495;53.252;10.390;2023-02-11T09:04:05;7.40;99.90
10885;DHT22;5495;53.252;10.390;2023-02-11T09:06:38;7.30;99.90
10885;DHT22;5495;53.252;10.390;2023-02-11T09:09:15;7.60;99.90
10885;DHT22;5495;53.252;10.390;2023-02-11T09:11:44;7.20;99.90
10885;DHT22;5495;53.252;10.390;2023-02-11T09:14:16;7.30;99.90
10885;DHT22;5495;53.252;10.390;2023-02-11T09:16:55;7.30;99.90
10885;DHT22;5495;53.252;10.390;2023-02-11T09:19:26;7.30;99.90
10885;DHT22;5495;53.252;10.390;2023-02-11T09:21:56;8.00;99.90
10885;DHT22;5495;53.252;10.390;2023-02-11T09:24:36;4.50;99.90
10885;DHT22;5495;53.252;10.390;2023-02-11T09:27:06;7.50;99.90
10885;DHT22;5495;53.252;10.390;2023-02-11T09:29:34;7.70;99.90
10885;DHT22;5495;53.252;10.390;2023-02-11T09:32:01;7.80;99.90
10885;DHT22;5495;53.252;10.390;2023-02-11T09:34:39;8.00;99.90
10885;DHT22;5495;53.252;10.390;2023-02-11T09:37:14;7.80;99.90
10885;DHT22;5495;53.252;10.390;2023-02-11T09:39:44;7.40;99.90
10885;DHT22;5495;53.252;10.390;2023-02-11T09:42:40;7.40;99.90
10885;DHT22;5495;53.252;10.390;2023-02-11T09:45:14;7.40;99.90
10885;DHT22;5495;53.252;10.390;2023-02-11T09:47:51;7.40;99.90
10885;DHT22;5495;53.252;10.390;2023-02-11T09:50:29;7.40;99.90
10885;DHT22;5495;53.252;10.390;2023-02-11T09:53:05;7.10;99.90
10885;DHT22;5495;53.252;10.390;2023-02-11T09:55:44;8.00;99.90
10885;DHT22;5495;53.252;10.390;2023-02-11T09:58:14;7.50;99.90
10885;DHT22;5495;53.252;10.390;2023-02-11T10:00:45;7.60;99.90
10885;DHT22;5495;53.252;10.390;2023-02-11T10:03:35;7.50;99.90
10885;DHT22;5495;53.252;10.390;2023-02-11T10:09:04;7.60;99.90
10885;DHT22;5495;53.252;10.390;2023-02-11T10:11:49;7.60;99.90
10885;DHT22;5495;53.252;10.390;2023-02-11T10:14:35;7.60;99.90
10885;DHT22;5495;53.252;10.390;2023-02-11T10:17:11;7.60;99.90
10885;DHT22;5495;53.252;10.390;2023-02-11T10:20:07;7.80;99.90
10885;DHT22;5495;53.252;10.390;2023-02-11T10:22:53;7.60;99.90
10885;DHT22;5495;53.252;10.390;2023-02-11T10:25:32;6.80;99.90
10885;DHT22;5495;53.252;10.390;2023-02-11T10:28:08;7.80;99.90
10885;DHT22;5495;53.252;10.390;2023-02-11T10:30:41;7.60;99.90
10885;DHT22;5495;53.252;10.390;2023-02-11T10:33:17;6.70;99.90
10885;DHT22;5495;53.252;10.390;2023-02-11T10:35:49;7.70;99.90
10885;DHT22;5495;53.252;10.390;2023-02-11T10:38:19;7.60;99.90
10885;DHT22;5495;53.252;10.390;2023-02-11T10:40:50;7.70;99.90
10885;DHT22;5495;53.252;10.390;2023-02-11T10:43:29;8.30;99.90
10885;DHT22;5495;53.252;10.390;2023-02-11T10:45:59;7.80;99.90
10885;DHT22;5495;53.252;10.390;2023-02-11T10:48:41;8.00;99.90
10885;DHT22;5495;53.252;10.390;2023-02-11T10:51:18;7.80;99.90
10885;DHT22;5495;53.252;10.390;2023-02-11T10:53:47;7.80;99.90
10885;DHT22;5495;53.252;10.390;2023-02-11T10:56:27;7.80;99.90
10885;DHT22;5495;53.252;10.390;2023-02-11T10:59:12;8.10;99.90
10885;DHT22;5495;53.252;10.390;2023-02-11T11:01:45;7.70;99.90
10885;DHT22;5495;53.252;10.390;2023-02-11T11:04:36;7.80;99.90
10885;DHT22;5495;53.252;10.390;2023-02-11T11:07:17;7.80;99.90
10885;DHT22;5495;53.252;10.390;2023-02-11T11:09:50;7.80;99.90
10885;DHT22;5495;53.252;10.390;2023-02-11T11:12:39;7.70;99.90
10885;DHT22;5495;53.252;10.390;2023-02-11T11:15:16;7.80;99.90
10885;DHT22;5495;53.252;10.390;2023-02-11T11:17:46;7.80;99.90
10885;DHT22;5495;53.252;10.390;2023-02-11T11:20:24;7.80;99.90
10885;DHT22;5495;53.252;10.390;2023-02-11T11:23:08;7.80;99.90
10885;DHT22;5495;53.252;10.390;2023-02-11T11:25:40;7.80;99.90
10885;DHT22;5495;53.252;10.390;2023-02-11T11:28:21;7.80;99.90
10885;DHT22;5495;53.252;10.390;2023-02-11T11:30:52;8.30;99.90
10885;DHT22;5495;53.252;10.390;2023-02-11T11:33:28;7.80;99.90
10885;DHT22;5495;53.252;10.390;2023-02-11T11:36:04;8.50;99.90
10885;DHT22;5495;53.252;10.390;2023-02-11T11:38:34;7.90;99.90
10885;DHT22;5495;53.252;10.390;2023-02-11T11:41:15;7.70;99.90
10885;DHT22;5495;53.252;10.390;2023-02-11T11:43:56;7.30;99.90
10885;DHT22;5495;53.252;10.390;2023-02-11T11:46:28;7.80;99.90
10885;DHT22;5495;53.252;10.390;2023-02-11T11:49:03;7.80;99.90
10885;DHT22;5495;53.252;10.390;2023-02-11T11:51:34;7.80;99.90
10885;DHT22;5495;53.252;10.390;2023-02-11T11:54:07;7.80;99.90
10885;DHT22;5495;53.252;10.390;2023-02-11T11:56:44;7.90;99.90
10885;DHT22;5495;53.252;10.390;2023-02-11T11:59:15;7.90;99.90
10885;DHT22;5495;53.252;10.390;2023-02-11T12:01:57;7.90;99.90
10885;DHT22;5495;53.252;10.390;2023-02-11T12:07:31;7.90;99.90
10885;DHT22;5495;53.252;10.390;2023-02-11T12:10:23;7.90;99.90
10885;DHT22;5495;53.252;10.390;2023-02-11T12:13:04;7.90;99.90
10885;DHT22;5495;53.252;10.390;2023-02-11T12:15:42;7.90;99.90
10885;DHT22;5495;53.252;10.390;2023-02-11T12:18:24;7.90;99.90
10885;DHT22;5495;53.252;10.390;2023-02-11T12:21:12;7.90;99.90
10885;DHT22;5495;53.252;10.390;2023-02-11T12:23:56;7.90;99.90
10885;DHT22;5495;53.252;10.390;2023-02-11T12:26:31;7.90;99.90
10885;DHT22;5495;53.252;10.390;2023-02-11T12:29:09;7.90;99.90
10885;DHT22;5495;53.252;10.390;2023-02-11T12:31:59;7.90;99.90
10885;DHT22;5495;53.252;10.390;2023-02-11T12:37:27;8.00;99.90
10885;DHT22;5495;53.252;10.390;2023-02-11T12:40:07;7.90;99.90
10885;DHT22;5495;53.252;10.390;2023-02-11T12:42:54;8.00;99.90
10885;DHT22;5495;53.252;10.390;2023-02-11T12:46:04;8.00;99.90
10885;DHT22;5495;53.252;10.390;2023-02-11T12:49:16;7.90;99.90
10885;DHT22;5495;53.252;10.390;2023-02-11T12:52:01;8.40;99.90
10885;DHT22;5495;53.252;10.390;2023-02-11T12:54:35;8.00;99.90
10885;DHT22;5495;53.252;10.390;2023-02-11T12:57:12;8.00;99.90
10885;DHT22;5495;53.252;10.390;2023-02-11T12:59:55;8.00;99.90
10885;DHT22;5495;53.252;10.390;2023-02-11T13:02:32;8.00;99.90
10885;DHT22;5495;53.252;10.390;2023-02-11T13:05:18;8.30;99.90
10885;DHT22;5495;53.252;10.390;2023-02-11T13:07:56;8.00;99.90
10885;DHT22;5495;53.252;10.390;2023-02-11T13:10:31;7.90;99.90
10885;DHT22;5495;53.252;10.390;2023-02-11T13:13:13;7.90;99.90
10885;DHT22;5495;53.252;10.390;2023-02-11T13:15:47;8.00;99.90
10885;DHT22;5495;53.252;10.390;2023-02-11T13:18:35;8.00;99.90
10885;DHT22;5495;53.252;10.390;2023-02-11T13:21:23;8.00;99.90
10885;DHT22;5495;53.252;10.390;2023-02-11T13:23:56;7.90;99.90
10885;DHT22;5495;53.252;10.390;2023-02-11T13:26:32;8.00;99.90
10885;DHT22;5495;53.252;10.390;2023-02-11T13:29:17;8.60;99.90
10885;DHT22;5495;53.252;10.390;2023-02-11T13:31:53;8.40;99.90
10885;DHT22;5495;53.252;10.390;2023-02-11T13:34:25;8.10;99.90
10885;DHT22;5495;53.252;10.390;2023-02-11T13:36:57;8.00;99.90
10885;DHT22;5495;53.252;10.390;2023-02-11T13:39:24;8.10;99.90
10885;DHT22;5495;53.252;10.390;2023-02-11T13:42:01;8.20;99.90
10885;DHT22;5495;53.252;10.390;2023-02-11T13:44:31;8.20;99.90
10885;DHT22;5495;53.252;10.390;2023-02-11T13:47:03;8.20;99.90
10885;DHT22;5495;53.252;10.390;2023-02-11T13:49:34;8.20;99.90
10885;DHT22;5495;53.252;10.390;2023-02-11T13:52:24;8.20;99.90
10885;DHT22;5495;53.252;10.390;2023-02-11T13:54:55;8.10;99.90
10885;DHT22;5495;53.252;10.390;2023-02-11T13:57:38;8.20;99.90
10885;DHT22;5495;53.252;10.390;2023-02-11T14:03:39;8.20;99.90
10885;DHT22;5495;53.252;10.390;2023-02-11T14:07:27;8.70;99.90
10885;DHT22;5495;53.252;10.390;2023-02-11T14:13:35;8.50;99.90
10885;DHT22;5495;53.252;10.390;2023-02-11T14:16:06;8.30;99.90
10885;DHT22;5495;53.252;10.390;2023-02-11T14:18:59;8.10;99.90
10885;DHT22;5495;53.252;10.390;2023-02-11T14:21:33;8.10;99.90
10885;DHT22;5495;53.252;10.390;2023-02-11T14:27:40;8.00;99.90
10885;DHT22;5495;53.252;10.390;2023-02-11T14:34:04;8.70;99.90
10885;DHT22;5495;53.252;10.390;2023-02-11T14:37:21;8.10;99.90
10885;DHT22;5495;53.252;10.390;2023-02-11T14:40:47;8.30;99.90
10885;DHT22;5495;53.252;10.390;2023-02-11T14:43:38;8.60;99.90
10885;DHT22;5495;53.252;10.390;2023-02-11T14:46:07;8.00;99.90
10885;DHT22;5495;53.252;10.390;2023-02-11T14:49:03;8.10;99.90
10885;DHT22;5495;53.252;10.390;2023-02-11T14:51:34;7.90;99.90
10885;DHT22;5495;53.252;10.390;2023-02-11T14:54:08;8.00;99.90
10885;DHT22;5495;53.252;10.390;2023-02-11T14:57:07;8.00;99.90
10885;DHT22;5495;53.252;10.390;2023-02-11T14:59:48;6.50;99.90
10885;DHT22;5495;53.252;10.390;2023-02-11T15:02:23;8.30;99.90
10885;DHT22;5495;53.252;10.390;2023-02-11T15:07:49;8.00;99.90
10885;DHT22;5495;53.252;10.390;2023-02-11T15:10:28;8.40;99.90
10885;DHT22;5495;53.252;10.390;2023-02-11T15:13:03;9.00;99.90
10885;DHT22;5495;53.252;10.390;2023-02-11T15:15:40;8.10;99.90
10885;DHT22;5495;53.252;10.390;2023-02-11T15:18:31;8.70;99.90
10885;DHT22;5495;53.252;10.390;2023-02-11T15:21:03;8.00;99.90
10885;DHT22;5495;53.252;10.390;2023-02-11T15:23:31;7.90;99.90
10885;DHT22;5495;53.252;10.390;2023-02-11T15:25:59;8.60;99.90
10885;DHT22;5495;53.252;10.390;2023-02-11T15:28:47;7.90;99.90
10885;DHT22;5495;53.252;10.390;2023-02-11T15:31:25;7.30;99.90
10885;DHT22;5495;53.252;10.390;2023-02-11T15:33:53;7.30;99.90
10885;DHT22;5495;53.252;10.390;2023-02-11T15:36:23;8.00;99.90
10885;DHT22;5495;53.252;10.390;2023-02-11T15:42:24;7.90;99.90
10885;DHT22;5495;53.252;10.390;2023-02-11T15:51:54;7.70;99.90
10885;DHT22;5495;53.252;10.390;2023-02-11T15:54:26;7.90;99.90
10885;DHT22;5495;53.252;10.390;2023-02-11T15:57:00;7.90;99.90
10885;DHT22;5495;53.252;10.390;2023-02-11T15:59:32;7.90;99.90
10885;DHT22;5495;53.252;10.390;2023-02-11T16:02:19;7.90;99.90
10885;DHT22;5495;53.252;10.390;2023-02-11T16:04:53;7.90;99.90
10885;DHT22;5495;53.252;10.390;2023-02-11T16:07:43;7.90;99.90
10885;DHT22;5495;53.252;10.390;2023-02-11T16:10:19;7.90;99.90
10885;DHT22;5495;53.252;10.390;2023-02-11T16:13:02;7.90;99.90
10885;DHT22;5495;53.252;10.390;2023-02-11T16:15:43;7.90;99.90
10885;DHT22;5495;53.252;10.390;2023-02-11T16:18:26;7.90;99.90
10885;DHT22;5495;53.252;10.390;2023-02-11T16:20:55;7.90;99.90
10885;DHT22;5495;53.252;10.390;2023-02-11T16:23:27;7.90;99.90
10885;DHT22;5495;53.252;10.390;2023-02-11T16:25:59;7.90;99.90
10885;DHT22;5495;53.252;10.390;2023-02-11T16:28:31;7.90;99.90
10885;DHT22;5495;53.252;10.390;2023-02-11T16:30:59;7.90;99.90
10885;DHT22;5495;53.252;10.390;2023-02-11T16:33:26;7.90;99.90
10885;DHT22;5495;53.252;10.390;2023-02-11T16:36:00;7.90;99.90
10885;DHT22;5495;53.252;10.390;2023-02-11T16:38:34;7.90;99.90
10885;DHT22;5495;53.252;10.390;2023-02-11T16:41:01;7.90;99.90
10885;DHT22;5495;53.252;10.390;2023-02-11T16:43:31;7.90;99.90
10885;DHT22;5495;53.252;10.390;2023-02-11T16:45:59;7.90;99.90
10885;DHT22;5495;53.252;10.390;2023-02-11T16:48:34;7.90;99.90
10885;DHT22;5495;53.252;10.390;2023-02-11T16:51:02;8.10;99.90
10885;DHT22;5495;53.252;10.390;2023-02-11T16:53:29;7.80;99.90
10885;DHT22;5495;53.252;10.390;2023-02-11T16:56:08;7.80;99.90
10885;DHT22;5495;53.252;10.390;2023-02-11T16:58:39;8.30;99.90
10885;DHT22;5495;53.252;10.390;2023-02-11T17:01:33;7.80;99.90
10885;DHT22;5495;53.252;10.390;2023-02-11T17:04:09;8.10;99.90
10885;DHT22;5495;53.252;10.390;2023-02-11T17:06:41;7.90;99.90
10885;DHT22;5495;53.252;10.390;2023-02-11T17:09:15;8.00;99.90
10885;DHT22;5495;53.252;10.390;2023-02-11T17:11:47;8.10;99.90
10885;DHT22;5495;53.252;10.390;2023-02-11T17:14:20;7.90;99.90